Time;durP1;ratioP1;P1;durP2;ratioP2;P2;SDS_P1;SDS_P2;PMS_P1;PMS_P2;Temp;Humidity;BMP_temperature;BMP_pressure;BME280_temperature;BME280_humidity;BME280_pressure;Samples;Min_cycle;Max_cycle;Signal;HPM_P1;HPM_P2
2022/06/04 00:06:54;;;;;;;8.35;5.42;;;;;;;15.57;62.04;99166.58;4420587;79;21018;-84
2022/06/04 00:19:24;;;;;;;10.15;6.20;;;;;;;15.31;63.25;99162.37;4405643;79;21022;-83
2022/06/04 00:25:44;;;;;;;10.40;6.50;;;;;;;15.16;63.29;99161.47;4409591;79;21031;-83
2022/06/04 00:32:08;;;;;;;9.85;5.97;;;;;;;15.05;63.29;99160.12;4415750;79;21019;-83
2022/06/04 00:38:23;;;;;;;11.25;6.47;;;;;;;15.12;64.67;99165.62;4415160;79;21425;-83
2022/06/04 00:44:52;;;;;;;12.13;6.95;;;;;;;15.19;65.06;99169.70;4416251;79;21019;-83
2022/06/04 00:51:15;;;;;;;10.82;7.30;;;;;;;15.16;65.70;99168.37;4329022;79;22063;-83
2022/06/04 00:58:14;;;;;;;12.45;7.12;;;;;;;15.09;65.76;99154.59;4356093;79;21131;-83
2022/06/04 01:04:47;;;;;;;10.45;6.85;;;;;;;14.96;65.82;99151.50;4188553;83;21047;-82
2022/06/04 01:18:49;;;;;;;11.40;6.53;;;;;;;14.87;65.61;99142.09;4260998;82;21066;-82
2022/06/04 01:25:42;;;;;;;11.55;6.53;;;;;;;14.88;65.83;99130.66;4260810;82;21185;-83
2022/06/04 01:32:36;;;;;;;14.98;6.95;;;;;;;14.90;65.94;99123.37;4193321;82;21122;-83
2022/06/04 01:39:11;;;;;;;11.55;7.15;;;;;;;14.92;66.39;99125.14;4350572;80;21083;-83
2022/06/04 01:45:17;;;;;;;9.80;6.80;;;;;;;14.94;66.37;99125.53;4404304;79;20999;-83
2022/06/04 01:51:26;;;;;;;9.28;6.67;;;;;;;15.03;66.89;99118.98;4401110;79;21070;-83
2022/06/04 01:58:04;;;;;;;13.95;7.08;;;;;;;15.14;67.54;99110.84;4400891;79;21046;-83
2022/06/04 02:04:27;;;;;;;7.08;6.25;;;;;;;15.06;67.02;99102.44;4380749;79;20981;-84
2022/06/04 02:10:56;;;;;;;10.70;7.05;;;;;;;15.05;67.31;99099.47;4412369;81;21016;-83
2022/06/04 02:17:21;;;;;;;14.50;6.72;;;;;;;15.12;67.63;99093.93;4404632;80;21011;-83
2022/06/04 02:23:33;;;;;;;10.23;7.03;;;;;;;15.12;67.38;99093.93;4405366;79;21041;-83
2022/06/04 02:29:44;;;;;;;10.38;7.17;;;;;;;15.05;67.86;99080.78;4182204;79;5234574;-83
2022/06/04 02:36:11;;;;;;;10.85;7.33;;;;;;;15.05;67.96;99086.30;4327881;81;34647;-83
2022/06/04 02:49:13;;;;;;;11.33;8.40;;;;;;;15.01;68.16;99073.91;4298036;82;21475;-83
2022/06/04 02:55:32;;;;;;;9.80;7.33;;;;;;;14.99;68.08;99069.38;4298843;81;21942;-84
2022/06/04 03:01:55;;;;;;;9.83;7.22;;;;;;;14.97;68.42;99064.85;4315578;81;21019;-84
2022/06/04 03:08:06;;;;;;;10.63;6.67;;;;;;;15.10;69.29;99070.11;4308379;81;21003;-85
2022/06/04 03:14:07;;;;;;;13.50;7.20;;;;;;;15.09;68.79;99066.38;4327030;81;21524;-85
2022/06/04 03:20:25;;;;;;;12.33;7.45;;;;;;;15.05;68.75;99051.84;4283507;81;21556;-84
2022/06/04 03:26:26;;;;;;;10.63;6.33;;;;;;;15.03;69.34;99045.34;4293744;81;21055;-85
2022/06/04 03:32:36;;;;;;;8.73;6.62;;;;;;;15.16;69.76;99052.56;4298175;81;21004;-85
2022/06/04 03:38:38;;;;;;;10.45;6.97;;;;;;;15.23;69.69;99053.29;4298804;81;21063;-84
2022/06/04 03:44:58;;;;;;;9.45;7.10;;;;;;;15.16;69.62;99051.95;4308270;81;21558;-84
2022/06/04 03:50:59;;;;;;;11.35;6.35;;;;;;;15.17;69.90;99056.29;4306660;81;21811;-85
2022/06/04 04:04:03;;;;;;;10.00;6.83;;;;;;;15.28;70.40;99053.45;4295959;81;21050;-84
2022/06/04 04:10:07;;;;;;;13.03;7.40;;;;;;;15.19;70.30;99045.62;4300546;81;21027;-84
2022/06/04 04:16:12;;;;;;;9.40;6.75;;;;;;;15.18;70.94;99056.47;4307324;81;21004;-83
2022/06/04 04:22:21;;;;;;;10.65;6.80;;;;;;;15.22;71.17;99059.97;4334232;80;21023;-85
2022/06/04 04:28:22;;;;;;;13.95;7.67;;;;;;;15.30;71.09;99069.02;4341933;80;21007;-85
2022/06/04 04:34:26;;;;;;;11.30;7.80;;;;;;;15.20;71.15;99072.02;4248405;80;21045;-84
2022/06/04 04:40:29;;;;;;;10.43;7.60;;;;;;;15.15;71.18;99072.45;4214127;83;21071;-83
2022/06/04 04:46:31;;;;;;;14.20;7.50;;;;;;;15.10;71.20;99081.72;4220735;83;21027;-84
2022/06/04 04:52:33;;;;;;;11.03;7.50;;;;;;;15.11;72.22;99100.61;4220379;83;21016;-85
2022/06/04 04:58:37;;;;;;;12.73;7.78;;;;;;;15.07;72.53;99110.89;4227491;83;20999;-84
2022/06/04 05:11:32;;;;;;;11.63;7.42;;;;;;;14.85;73.48;99137.55;4217862;83;20969;-85
2022/06/04 05:17:35;;;;;;;11.03;8.55;;;;;;;14.80;74.52;99140.13;4211331;84;21020;-85
2022/06/04 05:23:40;;;;;;;12.28;8.68;;;;;;;14.82;74.56;99150.17;4209302;83;21015;-83
2022/06/04 05:29:44;;;;;;;15.00;10.20;;;;;;;14.70;75.50;99142.94;4213411;83;21084;-82
2022/06/04 05:35:46;;;;;;;18.35;9.68;;;;;;;14.51;76.83;99170.92;4247834;81;22025;-84
2022/06/04 05:41:48;;;;;;;14.47;9.68;;;;;;;14.46;77.85;99166.60;4264342;82;21037;-84
2022/06/04 05:47:50;;;;;;;16.02;10.23;;;;;;;14.38;78.40;99170.55;4257717;82;21516;-87
2022/06/04 05:53:53;;;;;;;14.15;10.53;;;;;;;14.36;78.69;99170.14;4255752;82;21037;-84
2022/06/04 05:59:54;;;;;;;15.18;12.05;;;;;;;14.36;79.72;99166.62;4256425;81;21033;-84
2022/06/04 06:05:56;;;;;;;13.90;11.65;;;;;;;14.37;80.06;99156.59;4261764;82;21049;-84
2022/06/04 06:11:57;;;;;;;18.62;12.30;;;;;;;14.36;80.66;99157.75;4154846;84;21027;-84
2022/06/04 06:17:58;;;;;;;14.07;11.28;;;;;;;14.37;80.85;99159.92;4156133;84;21576;-84
2022/06/04 06:24:00;;;;;;;14.40;12.85;;;;;;;14.38;81.50;99161.48;4147725;84;21077;-84
2022/06/04 06:30:05;;;;;;;17.27;11.85;;;;;;;14.39;81.50;99157.57;4159394;84;21028;-84
2022/06/04 06:36:10;;;;;;;17.73;13.30;;;;;;;14.38;82.20;99143.00;4197369;83;21615;-86
2022/06/04 06:42:12;;;;;;;22.82;12.68;;;;;;;14.47;81.86;99139.85;4165330;84;21075;-85
2022/06/04 06:48:15;;;;;;;16.82;12.30;;;;;;;14.51;82.31;99139.24;4318688;81;21006;-85
2022/06/04 06:54:20;;;;;;;15.72;11.05;;;;;;;14.54;82.79;99127.42;4322083;81;20928;-84
2022/06/04 07:00:21;;;;;;;15.90;12.88;;;;;;;14.63;83.08;99117.56;4319671;81;21074;-85
2022/06/04 07:06:39;;;;;;;19.32;15.05;;;;;;;14.76;83.60;99118.70;4326628;81;21031;-85
2022/06/04 07:12:42;;;;;;;16.75;12.98;;;;;;;14.86;83.95;99110.20;4283588;81;21023;-84
2022/06/04 07:18:43;;;;;;;18.80;13.38;;;;;;;15.00;84.29;99107.39;4306908;81;20999;-85
2022/06/04 07:24:45;;;;;;;19.60;14.70;;;;;;;15.13;84.50;99106.52;4319108;81;21744;-84
2022/06/04 07:30:47;;;;;;;15.25;12.90;;;;;;;15.26;84.35;99114.53;4313184;81;21062;-84
2022/06/04 07:36:50;;;;;;;20.90;16.73;;;;;;;15.39;85.16;99117.02;4341584;80;20998;-86
2022/06/04 07:42:51;;;;;;;21.17;16.62;;;;;;;15.60;85.39;99119.66;4338243;80;21995;-85
2022/06/04 07:49:00;;;;;;;21.40;16.23;;;;;;;15.83;85.35;99127.97;4336181;80;21475;-86
2022/06/04 07:55:02;;;;;;;20.00;15.68;;;;;;;15.95;85.23;99131.02;4345662;80;21023;-85
2022/06/04 08:01:05;;;;;;;16.80;14.15;;;;;;;16.03;85.58;99140.03;4334734;80;21025;-84
2022/06/04 08:07:06;;;;;;;18.52;14.47;;;;;;;16.03;85.69;99140.03;4347305;80;21043;-85
2022/06/04 08:13:13;;;;;;;23.87;15.43;;;;;;;16.04;86.30;99145.73;4335896;80;21558;-85
2022/06/04 08:19:20;;;;;;;14.73;13.15;;;;;;;16.13;86.63;99143.30;4329077;80;21002;-86
2022/06/04 08:25:21;;;;;;;17.23;13.22;;;;;;;16.19;87.38;99152.12;4310786;80;21046;-85
2022/06/04 08:31:23;;;;;;;14.18;12.78;;;;;;;16.27;87.50;99169.41;4352461;80;21495;-85
2022/06/04 08:37:30;;;;;;;13.15;11.75;;;;;;;16.30;87.67;99176.27;4280231;81;21898;-86
2022/06/04 08:44:07;;;;;;;12.10;10.88;;;;;;;16.38;87.90;99186.68;4288231;81;21066;-86
2022/06/04 08:50:18;;;;;;;14.80;12.00;;;;;;;16.47;88.00;99198.06;4277191;81;21570;-86
2022/06/04 09:03:40;;;;;;;15.15;12.80;;;;;;;16.68;88.33;99207.52;4280068;81;21028;-86
2022/06/04 09:09:56;;;;;;;20.70;14.37;;;;;;;16.68;88.82;99214.43;4295212;82;21031;-85
2022/06/04 09:16:08;;;;;;;19.63;15.37;;;;;;;16.56;88.50;99212.19;4242023;82;21064;-85
2022/06/04 09:22:30;;;;;;;20.05;17.20;;;;;;;16.47;88.68;99200.24;4300166;83;21066;-86
2022/06/04 09:29:36;;;;;;;21.55;17.48;;;;;;;16.46;89.18;99190.36;4283917;81;21094;-85
2022/06/04 09:35:49;;;;;;;17.95;14.55;;;;;;;16.47;89.33;99185.05;4248397;80;21697;-85
2022/06/04 09:42:15;;;;;;;16.55;14.85;;;;;;;16.49;89.96;99188.16;4357674;81;20989;-86
2022/06/04 09:48:35;;;;;;;20.72;16.23;;;;;;;16.58;90.01;99198.75;4440117;80;20974;-84
2022/06/04 09:54:41;;;;;;;20.05;16.12;;;;;;;16.68;89.89;99200.02;4358904;81;20955;-85
2022/06/04 10:01:21;;;;;;;19.42;17.23;;;;;;;16.76;89.95;99203.49;4248516;82;21000;-85
2022/06/04 10:07:38;;;;;;;20.43;17.17;;;;;;;16.78;90.17;99199.14;4180730;83;21121;-85
2022/06/04 10:14:04;;;;;;;20.75;16.82;;;;;;;16.74;90.10;99189.31;4175121;83;21102;-85
2022/06/04 10:27:12;;;;;;;24.95;17.35;;;;;;;16.83;90.78;99196.52;4118094;85;21616;-85
2022/06/04 10:40:47;;;;;;;20.48;16.42;;;;;;;17.09;91.39;99209.65;4261882;82;21166;-85
2022/06/04 10:54:55;;;;;;;19.07;16.42;;;;;;;17.19;91.18;99220.58;4162821;85;21068;-85
2022/06/04 11:01:32;;;;;;;22.55;17.85;;;;;;;17.31;91.19;99217.09;4144304;84;21045;-86
2022/06/04 11:07:54;;;;;;;19.77;16.23;;;;;;;17.38;91.12;99213.66;4076710;85;21020;-85
2022/06/04 11:14:13;;;;;;;23.10;18.82;;;;;;;17.48;91.34;99209.22;4289475;80;21058;-85
2022/06/04 11:20:28;;;;;;;23.07;17.85;;;;;;;17.61;91.59;99211.59;4342097;80;21034;-85
2022/06/04 11:26:57;;;;;;;20.32;17.50;;;;;;;17.80;91.59;99204.80;4333501;80;20979;-85
2022/06/04 11:33:34;;;;;;;19.62;17.52;;;;;;;17.91;91.76;99203.25;4237779;82;21105;-85
2022/06/04 11:40:59;;;;;;;18.05;16.32;;;;;;;17.93;91.63;99199.47;4221212;82;21991;-85
2022/06/04 12:00:45;;;;;;;21.25;19.00;;;;;;;18.06;91.08;99183.81;4330626;80;20987;-85
2022/06/04 12:07:16;;;;;;;28.38;21.20;;;;;;;18.13;91.24;99185.09;4315782;81;21007;-87
2022/06/04 12:13:50;;;;;;;24.07;20.40;;;;;;;18.16;91.01;99185.05;4283062;82;21007;-85
2022/06/04 12:40:22;;;;;;;21.10;16.03;;;;;;;18.59;91.91;99171.25;4291625;81;20152;-84
2022/06/04 12:46:55;;;;;;;16.02;14.43;;;;;;;18.81;91.98;99164.72;4274160;81;21071;-85
2022/06/04 12:53:31;;;;;;;14.58;12.33;;;;;;;19.17;91.53;99178.06;4290145;81;20971;-85
2022/06/04 13:06:50;;;;;;;;;;;;;;;19.34;90.66;99183.89;4294141;81;21689;-84
2022/06/04 13:13:36;;;;;;;10.38;9.35;;;;;;;19.39;90.16;99186.92;4267140;81;20136;-84
2022/06/04 13:34:26;;;;;;;10.60;8.88;;;;;;;19.42;89.83;99176.34;4292068;81;21018;-84
2022/06/04 13:40:41;;;;;;;11.43;10.38;;;;;;;19.63;89.75;99173.72;4322348;80;21015;-84
2022/06/04 13:53:53;;;;;;;;;;;;;;;20.06;88.95;99173.67;4342625;80;21006;-85
2022/06/04 14:00:44;;;;;;;11.08;9.98;;;;;;;20.02;88.09;99172.20;4368071;80;20208;-85
2022/06/04 14:06:49;;;;;;;10.38;9.28;;;;;;;19.94;88.37;99175.77;4328257;81;21062;-84
2022/06/04 14:13:46;;;;;;;9.90;8.90;;;;;;;20.01;88.22;99172.04;4090147;84;21002;-85
2022/06/04 14:27:17;;;;;;;7.60;6.25;;;;;;;19.92;87.74;99177.42;4242974;81;21399;-85
2022/06/04 14:33:23;;;;;;;7.45;6.35;;;;;;;20.00;87.67;99172.64;4288469;80;21685;-86
2022/06/04 14:39:57;;;;;;;;;;;;;;;20.14;87.52;99171.53;4346493;80;21074;-85
2022/06/04 14:52:50;;;;;;;6.05;5.45;;;;;;;20.02;86.63;99177.16;4241904;82;21007;-86
2022/06/04 15:05:36;;;;;;;7.63;5.73;;;;;;;19.80;86.54;99183.04;4349688;80;21025;-85
2022/06/04 15:39:11;;;;;;;14.13;12.73;;;;;;;18.89;87.96;99197.42;4337739;80;22076;-87
2022/06/04 15:45:41;;;;;;;13.38;11.97;;;;;;;18.63;88.96;99206.05;4328944;80;21061;-84
2022/06/04 15:58:37;;;;;;;15.10;12.15;;;;;;;18.23;89.94;99196.59;4288482;80;21054;-85
2022/06/04 16:04:50;;;;;;;15.30;13.68;;;;;;;18.21;90.72;99208.09;4314650;80;21594;-85
2022/06/04 16:10:56;;;;;;;15.10;13.68;;;;;;;18.23;91.25;99212.62;4337220;80;20970;-85
2022/06/04 16:17:15;;;;;;;15.75;14.13;;;;;;;18.25;91.84;99226.05;4334023;80;22349;-86
2022/06/04 16:23:36;;;;;;;16.17;14.58;;;;;;;18.17;92.09;99222.63;4328933;80;21046;-85
2022/06/04 16:29:38;;;;;;;16.07;14.53;;;;;;;18.13;92.41;99212.80;4332352;80;21002;-85
2022/06/04 16:35:56;;;;;;;16.75;15.03;;;;;;;18.10;92.79;99210.88;4337930;80;21618;-84
2022/06/04 16:42:10;;;;;;;15.35;13.60;;;;;;;18.09;93.25;99212.85;4311834;80;21075;-85
2022/06/04 16:48:36;;;;;;;15.08;13.68;;;;;;;18.05;93.46;99207.98;4286219;81;21046;-86
2022/06/04 16:54:42;;;;;;;13.53;12.23;;;;;;;18.06;94.30;99205.97;4268589;81;21012;-84
2022/06/04 17:01:20;;;;;;;12.60;11.30;;;;;;;18.06;94.74;99208.16;4289150;81;20995;-85
2022/06/04 17:14:37;;;;;;;12.93;11.63;;;;;;;17.98;95.02;99226.70;4181865;83;21028;-85
2022/06/04 17:21:14;;;;;;;14.07;12.67;;;;;;;18.00;95.68;99236.73;4159683;84;21104;-85
2022/06/04 17:27:53;;;;;;;12.58;11.20;;;;;;;17.99;96.08;99230.44;4186535;83;21047;-84
2022/06/04 17:34:42;;;;;;;10.85;9.75;;;;;;;18.00;96.44;99240.89;4143217;84;21068;-85
2022/06/04 17:41:48;;;;;;;12.00;9.28;;;;;;;18.01;96.50;99254.32;4151085;83;21063;-85
2022/06/04 17:47:49;;;;;;;9.05;8.15;;;;;;;18.03;96.64;99260.83;4330248;82;20947;-85
2022/06/04 17:54:10;;;;;;;9.75;8.83;;;;;;;18.00;96.44;99268.59;4321207;81;20992;-85
2022/06/04 18:00:22;;;;;;;12.10;9.53;;;;;;;17.98;96.53;99259.31;4324299;82;21023;-85
2022/06/04 18:06:30;;;;;;;10.50;9.45;;;;;;;17.92;96.67;99265.14;4311191;82;21004;-84
2022/06/04 18:12:49;;;;;;;11.38;10.28;;;;;;;17.84;96.84;99271.19;4329246;82;20926;-84
2022/06/04 18:19:02;;;;;;;9.23;8.15;;;;;;;17.81;96.89;99289.43;4329586;82;21781;-84
2022/06/04 18:25:21;;;;;;;12.18;10.78;;;;;;;17.69;96.95;99296.91;4326236;81;21506;-84
2022/06/04 18:31:53;;;;;;;13.15;10.95;;;;;;;17.72;97.09;99304.39;4327921;81;21004;-85
2022/06/04 18:37:57;;;;;;;11.05;9.65;;;;;;;17.63;96.94;99293.03;4277260;82;21906;-84
2022/06/04 18:57:27;;;;;;;14.50;12.65;;;;;;;17.52;97.76;99281.31;4265676;80;21022;-85
2022/06/04 19:03:55;;;;;;;12.70;11.40;;;;;;;17.44;97.75;99293.66;4265049;83;21048;-85
2022/06/04 19:17:21;;;;;;;14.35;12.90;;;;;;;17.38;98.04;99324.93;4178649;85;21065;-84
2022/06/04 19:30:21;;;;;;;13.68;12.28;;;;;;;17.26;98.42;99351.13;3902631;90;22028;-85
2022/06/04 19:36:29;;;;;;;19.77;16.40;;;;;;;17.22;98.48;99349.02;3907284;90;21094;-84
2022/06/04 19:42:39;;;;;;;16.10;14.60;;;;;;;17.20;98.76;99350.02;3960245;89;21148;-84
2022/06/04 19:48:49;;;;;;;17.77;15.88;;;;;;;17.06;98.65;99341.27;4034240;81;21674;-84
2022/06/04 19:55:05;;;;;;;18.65;16.75;;;;;;;17.00;98.81;99341.52;4359580;80;20998;-85
2022/06/04 20:01:14;;;;;;;18.37;16.45;;;;;;;16.93;98.87;99331.09;4337779;80;21043;-84
2022/06/04 20:07:46;;;;;;;21.45;19.25;;;;;;;16.82;99.13;99342.26;4362165;80;20946;-84
2022/06/04 20:14:10;;;;;;;20.27;18.15;;;;;;;16.76;99.14;99326.52;4293014;83;21006;-84
2022/06/04 20:27:21;;;;;;;18.90;16.25;;;;;;;16.48;99.30;99319.23;4366124;81;20988;-85
2022/06/04 20:33:46;;;;;;;23.18;18.48;;;;;;;16.42;99.00;99324.19;4362777;81;21845;-84
2022/06/04 20:39:58;;;;;;;20.60;18.37;;;;;;;16.28;99.01;99327.84;4281107;81;21976;-84
2022/06/04 20:46:41;;;;;;;17.62;15.78;;;;;;;16.17;99.19;99334.02;4343696;81;21028;-85
2022/06/04 20:52:43;;;;;;;15.90;13.38;;;;;;;16.07;99.73;99326.58;4310769;82;21375;-85
2022/06/04 20:59:23;;;;;;;21.07;18.80;;;;;;;16.02;99.70;99328.38;4332763;82;20999;-84
2022/06/04 21:05:59;;;;;;;23.60;21.17;;;;;;;16.07;99.64;99320.28;4204378;84;20967;-84
2022/06/04 21:12:41;;;;;;;20.82;18.67;;;;;;;15.88;99.50;99311.12;4157760;84;22398;-84
2022/06/04 21:18:59;;;;;;;22.42;20.12;;;;;;;15.81;100.00;99325.73;4208546;83;21018;-84
2022/06/04 21:25:12;;;;;;;22.15;19.75;;;;;;;15.74;99.95;99326.37;4225628;82;21174;-84
2022/06/04 21:31:23;;;;;;;17.65;15.35;;;;;;;15.59;100.00;99330.56;4311825;81;21098;-84
2022/06/04 21:37:54;;;;;;;;;;;;;;;;;;;;;
2022/06/04 21:43:50;;;;;;;18.42;15.40;;;;;;;15.60;100.00;99347.30;4219198;83;21076;-84
2022/06/04 21:49:58;;;;;;;20.32;17.73;;;;;;;15.68;100.00;99367.99;4285597;82;21018;-85
2022/06/04 21:56:03;;;;;;;31.93;20.92;;;;;;;15.58;100.00;99360.70;4214650;82;21719;-84
2022/06/04 22:02:07;;;;;;;30.55;20.50;;;;;;;15.67;100.00;99357.53;4291509;82;21011;-84
2022/06/04 22:08:08;;;;;;;38.23;19.48;;;;;;;15.62;100.00;99360.70;4292079;82;21042;-84
2022/06/04 22:14:10;;;;;;;68.37;25.68;;;;;;;15.55;100.00;99356.60;4285741;81;21054;-84
2022/06/04 22:20:12;;;;;;;46.13;22.50;;;;;;;15.54;100.00;99345.35;4275153;82;21097;-85
2022/06/04 22:26:19;;;;;;;38.23;22.45;;;;;;;15.54;100.00;99361.33;4276423;82;21131;-84
2022/06/04 22:32:31;;;;;;;;;;;;;;;15.61;100.00;99362.66;4265954;81;20971;-84
2022/06/04 22:38:43;;;;;;;27.95;19.95;;;;;;;15.68;100.00;99375.08;4289319;82;20132;-84
2022/06/04 22:44:49;;;;;;;27.82;19.90;;;;;;;15.75;100.00;99373.47;4289277;81;21038;-84
2022/06/04 22:50:50;;;;;;;22.73;19.57;;;;;;;15.76;100.00;99374.45;4315880;81;21043;-85
2022/06/04 22:56:55;;;;;;;43.23;24.45;;;;;;;15.82;100.00;99380.36;4329914;82;21000;-84
2022/06/04 23:03:00;;;;;;;25.43;19.42;;;;;;;15.81;100.00;99364.97;4319232;81;21949;-85
2022/06/04 23:22:30;;;;;;;32.50;23.02;;;;;;;15.87;100.00;99384.06;4174962;85;21030;-84
2022/06/04 23:28:46;;;;;;;26.60;19.05;;;;;;;15.90;100.00;99380.50;4162538;85;21062;-84
2022/06/04 23:35:06;;;;;;;33.10;23.15;;;;;;;15.85;100.00;99396.89;4260736;83;21054;-84
2022/06/04 23:47:44;;;;;;;39.33;27.10;;;;;;;15.80;100.00;99378.58;4150206;84;21024;-84
2022/06/04 23:53:45;;;;;;;38.48;25.80;;;;;;;15.74;100.00;99378.20;4159364;84;21056;-85
2022/06/04 23:59:46;;;;;;;29.00;23.15;;;;;;;15.74;100.00;99369.91;4155570;84;21087;-85
